createdAt,value
2018-09-03T00:00:33.931Z,99368.16
2018-09-03T00:03:36.172Z,99359.77
2018-09-03T00:06:38.584Z,99353.81
2018-09-03T00:09:41.715Z,99341.13
2018-09-03T00:12:44.027Z,99341.68
2018-09-03T00:15:46.374Z,99341.82
2018-09-03T00:18:48.580Z,99329.23
2018-09-03T00:21:50.863Z,99330.23
2018-09-03T00:24:53.151Z,99326.66
2018-09-03T00:27:55.361Z,99329.17
2018-09-03T00:31:03.299Z,99322.45
2018-09-03T00:34:11.033Z,99313.81
2018-09-03T00:37:18.818Z,99308.98
2018-09-03T00:40:26.573Z,99308.91
2018-09-03T00:44:34.926Z,99301.33
2018-09-03T00:47:37.185Z,99312.24
2018-09-03T00:50:40.793Z,99318.89
2018-09-03T00:53:43.029Z,99321.27
2018-09-03T00:56:45.237Z,99323.27
2018-09-03T00:59:47.483Z,99326.91
2018-09-03T01:02:49.679Z,99327.59
2018-09-03T01:05:51.975Z,99329.55
2018-09-03T01:08:54.147Z,99331.86
2018-09-03T01:11:56.360Z,99341.58
2018-09-03T01:14:58.607Z,99357.26
2018-09-03T01:18:01.810Z,99355.44
2018-09-03T01:21:03.995Z,99364.66
2018-09-03T01:24:06.484Z,99361.52
2018-09-03T01:27:08.679Z,99357.51
2018-09-03T01:30:10.986Z,99357.01
2018-09-03T01:33:13.182Z,99356.31
2018-09-03T01:36:15.668Z,99352.05
2018-09-03T01:39:18.031Z,99356.50
2018-09-03T01:42:20.263Z,99357.57
2018-09-03T01:45:22.458Z,99344.28
2018-09-03T01:48:24.639Z,99349.67
2018-09-03T01:51:26.832Z,99349.55
2018-09-03T01:54:29.086Z,99348.15
2018-09-03T01:57:31.306Z,99349.73
2018-09-03T02:00:33.452Z,99352.58
2018-09-03T02:03:35.834Z,99355.77
2018-09-03T02:06:38.128Z,99341.66
2018-09-03T02:09:40.344Z,99340.90
2018-09-03T02:12:42.552Z,99342.22
2018-09-03T02:15:44.824Z,99342.84
2018-09-03T02:18:47.053Z,99341.48
2018-09-03T02:21:49.243Z,99338.80
2018-09-03T02:24:51.389Z,99335.61
2018-09-03T02:27:53.823Z,99336.06
2018-09-03T02:30:56.068Z,99329.11
2018-09-03T02:33:58.317Z,99330.06
2018-09-03T02:37:00.511Z,99334.58
2018-09-03T02:40:02.871Z,99329.63
2018-09-03T02:43:05.133Z,99326.13
2018-09-03T02:46:07.324Z,99328.89
2018-09-03T02:49:09.564Z,99324.13
2018-09-03T02:52:11.894Z,99324.26
2018-09-03T02:55:14.098Z,99321.00
2018-09-03T02:58:16.416Z,99316.55
2018-09-03T03:01:18.660Z,99319.00
2018-09-03T03:04:20.830Z,99311.05
2018-09-03T03:07:23.134Z,99307.98
2018-09-03T03:10:25.438Z,99307.91
2018-09-03T03:13:27.682Z,99305.59
2018-09-03T03:16:30.142Z,99306.54
2018-09-03T03:19:32.526Z,99303.53
2018-09-03T03:22:34.846Z,99297.58
2018-09-03T03:25:37.016Z,99289.17
2018-09-03T03:28:39.245Z,99290.61
2018-09-03T03:31:41.582Z,99283.41
2018-09-03T03:34:43.743Z,99266.67
2018-09-03T03:37:47.920Z,99256.02
2018-09-03T03:40:50.131Z,99254.14
2018-09-03T03:43:52.286Z,99245.75
2018-09-03T03:46:54.540Z,99241.36
2018-09-03T03:49:56.740Z,99248.19
2018-09-03T03:52:59.024Z,99246.81
2018-09-03T03:56:01.170Z,99245.18
2018-09-03T03:59:03.444Z,99239.48
2018-09-03T04:02:05.827Z,99230.14
2018-09-03T04:05:08.051Z,99230.95
2018-09-03T04:08:10.229Z,99236.09
2018-09-03T04:11:12.386Z,99237.34
2018-09-03T04:14:14.545Z,99231.20
2018-09-03T04:17:16.795Z,99224.55
2018-09-03T04:20:18.941Z,99225.80
2018-09-03T04:23:21.309Z,99230.69
2018-09-03T04:26:23.420Z,99236.57
2018-09-03T04:29:25.684Z,99243.78
2018-09-03T04:32:27.954Z,99248.61
2018-09-03T04:35:30.821Z,99240.40
2018-09-03T04:38:33.064Z,99238.70
2018-09-03T04:41:35.333Z,99233.13
2018-09-03T04:44:37.544Z,99240.64
2018-09-03T04:47:39.781Z,99230.80
2018-09-03T04:50:41.910Z,99228.36
2018-09-03T04:53:44.203Z,99222.72
2018-09-03T04:56:46.375Z,99215.75
2018-09-03T04:59:48.593Z,99215.68
2018-09-03T05:02:50.769Z,99222.88
2018-09-03T05:05:53.036Z,99229.47
2018-09-03T05:08:55.229Z,99225.83
2018-09-03T05:11:57.475Z,99229.59
2018-09-03T05:14:59.642Z,99227.84
2018-09-03T05:18:01.875Z,99231.55
2018-09-03T05:21:04.154Z,99228.72
2018-09-03T05:24:06.333Z,99227.91
2018-09-03T05:27:08.540Z,99230.78
2018-09-03T05:30:10.832Z,99244.44
2018-09-03T05:33:13.144Z,99239.28
2018-09-03T05:36:15.611Z,99238.33
2018-09-03T05:39:17.856Z,99244.29
2018-09-03T05:42:20.081Z,99243.83
2018-09-03T05:45:22.279Z,99237.27
2018-09-03T05:48:24.548Z,99241.89
2018-09-03T05:51:26.776Z,99240.49
2018-09-03T05:54:28.923Z,99249.64
2018-09-03T05:57:31.172Z,99243.48
2018-09-03T06:00:33.469Z,99254.64
2018-09-03T06:03:35.681Z,99259.95
2018-09-03T06:06:37.951Z,99257.00
2018-09-03T06:09:40.161Z,99253.91
2018-09-03T06:12:42.520Z,99253.28
2018-09-03T06:15:44.934Z,99253.36
2018-09-03T06:18:48.187Z,99248.63
2018-09-03T06:21:50.464Z,99245.45
2018-09-03T06:24:52.895Z,99241.53
2018-09-03T06:27:55.235Z,99232.58
2018-09-03T06:30:57.460Z,99229.97
2018-09-03T06:33:59.634Z,99226.89
2018-09-03T06:37:01.825Z,99230.69
2018-09-03T06:40:03.995Z,99230.84
2018-09-03T06:43:06.468Z,99228.94
2018-09-03T06:46:08.903Z,99227.33
2018-09-03T06:49:11.093Z,99225.91
2018-09-03T06:52:13.391Z,99232.70
2018-09-03T06:55:15.554Z,99229.03
2018-09-03T06:58:17.951Z,99222.01
2018-09-03T07:01:20.213Z,99218.94
2018-09-03T07:04:22.492Z,99224.14
2018-09-03T07:07:24.623Z,99227.68
2018-09-03T07:10:26.939Z,99225.05
2018-09-03T07:13:29.147Z,99226.89
2018-09-03T07:16:31.421Z,99228.42
2018-09-03T07:19:33.611Z,99218.54
2018-09-03T07:22:35.766Z,99224.84
2018-09-03T07:25:37.988Z,99230.75
2018-09-03T07:28:40.235Z,99220.30
2018-09-03T07:31:42.496Z,99216.48
2018-09-03T07:34:44.781Z,99210.04
2018-09-03T07:37:47.008Z,99209.58
2018-09-03T07:40:49.263Z,99211.52
2018-09-03T07:43:51.463Z,99201.84
2018-09-03T07:46:53.646Z,99212.91
2018-09-03T07:49:55.807Z,99214.55
2018-09-03T07:52:57.970Z,99211.73
2018-09-03T07:56:00.187Z,99215.34
2018-09-03T07:59:02.664Z,99216.89
2018-09-03T08:02:05.215Z,99211.19
2018-09-03T08:05:07.563Z,99212.06
2018-09-03T08:08:09.751Z,99208.80
2018-09-03T08:11:12.137Z,99211.38
2018-09-03T08:14:14.409Z,99216.17
2018-09-03T08:17:47.272Z,99206.31
2018-09-03T08:20:49.503Z,99206.30
2018-09-03T08:23:51.633Z,99208.27
2018-09-03T08:26:53.850Z,99205.36
2018-09-03T08:29:56.041Z,99208.05
2018-09-03T08:32:58.215Z,99204.39
2018-09-03T08:36:00.440Z,99204.66
2018-09-03T08:39:04.317Z,99198.82
2018-09-03T08:42:07.324Z,99195.66
2018-09-03T08:45:09.771Z,99198.67
2018-09-03T08:48:11.955Z,99195.18
2018-09-03T08:51:14.144Z,99190.73
2018-09-03T08:54:16.291Z,99189.55
2018-09-03T08:57:18.536Z,99191.05
2018-09-03T09:00:20.796Z,99192.61
2018-09-03T09:03:28.604Z,99189.47
2018-09-03T09:06:30.803Z,99188.91
2018-09-03T09:09:33.111Z,99194.59
2018-09-03T09:12:35.348Z,99198.20
2018-09-03T09:15:37.484Z,99197.69
2018-09-03T09:18:39.802Z,99194.58
2018-09-03T09:21:42.071Z,99199.91
2018-09-03T09:24:44.283Z,99191.46
2018-09-03T09:27:46.494Z,99185.55
2018-09-03T09:30:48.722Z,99184.56
2018-09-03T09:33:50.973Z,99183.03
2018-09-03T09:36:53.407Z,99188.22
2018-09-03T09:39:55.628Z,99189.83
2018-09-03T09:42:58.272Z,99180.06
2018-09-03T09:46:01.440Z,99181.12
2018-09-03T09:49:03.631Z,99189.39
2018-09-03T09:52:05.892Z,99187.99
2018-09-03T09:55:08.132Z,99185.42
2018-09-03T09:58:10.329Z,99183.66
2018-09-03T10:01:18.005Z,99178.64
2018-09-03T10:04:22.176Z,99177.76
2018-09-03T10:07:24.433Z,99168.34
2018-09-03T10:10:26.780Z,99157.93
2018-09-03T10:13:29.104Z,99159.48
2018-09-03T10:16:31.370Z,99159.84
2018-09-03T10:19:33.563Z,99160.67
2018-09-03T10:22:35.768Z,99156.84
2018-09-03T10:25:37.948Z,99153.73
2018-09-03T10:28:40.209Z,99149.67
2018-09-03T10:31:42.413Z,99154.63
2018-09-03T10:34:44.719Z,99150.84
2018-09-03T10:37:47.108Z,99148.62
2018-09-03T10:40:49.295Z,99148.27
2018-09-03T10:43:51.446Z,99138.98
2018-09-03T10:46:53.731Z,99141.13
2018-09-03T10:49:56.439Z,99144.50
2018-09-03T10:52:58.652Z,99148.83
2018-09-03T10:56:00.931Z,99150.83
2018-09-03T10:59:03.099Z,99134.95
2018-09-03T11:02:05.452Z,99141.30
2018-09-03T11:05:07.620Z,99136.36
2018-09-03T11:08:18.965Z,99134.07
2018-09-03T11:11:21.228Z,99136.02
2018-09-03T11:14:23.493Z,99129.99
2018-09-03T11:17:25.988Z,99128.38
2018-09-03T11:20:29.243Z,99128.55
2018-09-03T11:23:32.587Z,99128.81
2018-09-03T11:26:34.768Z,99125.66
2018-09-03T11:29:37.912Z,99114.44
2018-09-03T11:32:44.668Z,99124.66
2018-09-03T11:35:46.922Z,99123.09
2018-09-03T11:38:49.165Z,99119.94
2018-09-03T11:41:51.311Z,99119.45
2018-09-03T11:44:53.490Z,99119.16
2018-09-03T11:47:55.926Z,99119.59
2018-09-03T11:50:58.231Z,99121.19
2018-09-03T11:54:00.480Z,99124.30
2018-09-03T11:57:02.803Z,99122.39
2018-09-03T12:00:06.169Z,99120.66
2018-09-03T12:03:08.416Z,99123.68
2018-09-03T12:06:10.821Z,99127.14
2018-09-03T12:09:12.991Z,99117.34
2018-09-03T12:12:15.417Z,99115.11
2018-09-03T12:15:24.620Z,99119.31
2018-09-03T12:18:26.803Z,99125.78
2018-09-03T12:21:29.024Z,99121.22
2018-09-03T12:24:31.300Z,99117.83
2018-09-03T12:27:33.536Z,99116.73
2018-09-03T12:30:35.915Z,99117.33
2018-09-03T12:33:38.193Z,99121.47
2018-09-03T12:36:40.587Z,99118.24
2018-09-03T12:39:42.817Z,99113.32
2018-09-03T12:42:45.010Z,99111.58
2018-09-03T12:45:53.838Z,99107.04
2018-09-03T12:48:56.236Z,99109.57
2018-09-03T12:51:58.638Z,99103.14
2018-09-03T12:55:00.890Z,99105.58
2018-09-03T12:58:03.744Z,99108.52
2018-09-03T13:01:06.106Z,99116.17
2018-09-03T13:04:08.367Z,99113.09
2018-09-03T13:07:10.640Z,99115.30
2018-09-03T13:10:12.977Z,99115.61
2018-09-03T13:13:15.180Z,99110.82
2018-09-03T13:16:17.455Z,99108.63
2018-09-03T13:19:19.632Z,99098.58
2018-09-03T13:22:21.806Z,99102.22
2018-09-03T13:25:24.072Z,99106.27
2018-09-03T13:28:26.302Z,99093.94
2018-09-03T13:31:28.439Z,99098.36
2018-09-03T13:34:30.741Z,99091.23
2018-09-03T13:37:33.135Z,99096.05
2018-09-03T13:40:35.407Z,99095.30
2018-09-03T13:43:37.892Z,99093.10
2018-09-03T13:46:40.141Z,99093.05
2018-09-03T13:49:42.322Z,99089.05
2018-09-03T13:55:55.624Z,99097.83
2018-09-03T13:58:57.850Z,99094.20
2018-09-03T14:02:00.098Z,99090.84
2018-09-03T14:05:02.326Z,99083.03
2018-09-03T14:08:04.556Z,99080.61
2018-09-03T14:11:06.803Z,99072.86
2018-09-03T14:14:09.143Z,99078.34
2018-09-03T14:17:11.455Z,99078.28
2018-09-03T14:20:13.666Z,99080.92
2018-09-03T14:23:15.984Z,99081.94
2018-09-03T14:26:18.175Z,99080.31
2018-09-03T14:29:20.328Z,99088.66
2018-09-03T14:32:22.687Z,99086.47
2018-09-03T14:35:25.015Z,99083.44
2018-09-03T14:38:27.356Z,99080.05
2018-09-03T14:41:29.596Z,99082.64
2018-09-03T14:44:31.828Z,99082.57
2018-09-03T14:47:34.048Z,99073.69
2018-09-03T14:50:36.259Z,99072.13
2018-09-03T14:53:38.796Z,99074.92
2018-09-03T14:56:41.107Z,99072.66
2018-09-03T14:59:43.432Z,99066.52
2018-09-03T15:02:45.871Z,99072.24
2018-09-03T15:05:48.228Z,99075.47
2018-09-03T15:08:50.417Z,99064.64
2018-09-03T15:11:52.650Z,99080.92
2018-09-03T15:14:54.959Z,99079.39
2018-09-03T15:17:57.170Z,99076.64
2018-09-03T15:20:59.471Z,99078.52
2018-09-03T15:24:02.035Z,99079.61
2018-09-03T15:27:04.451Z,99081.23
2018-09-03T15:30:06.792Z,99073.94
2018-09-03T15:33:09.012Z,99073.47
2018-09-03T15:36:11.447Z,99069.70
2018-09-03T15:39:13.737Z,99069.08
2018-09-03T15:42:16.006Z,99069.59
2018-09-03T15:45:18.308Z,99066.25
2018-09-03T15:48:20.679Z,99062.61
2018-09-03T15:51:23.117Z,99063.36
2018-09-03T15:54:25.336Z,99069.97
2018-09-03T15:57:27.670Z,99071.63
2018-09-03T16:00:30.065Z,99070.34
2018-09-03T16:03:32.227Z,99068.16
2018-09-03T16:06:34.516Z,99068.88
2018-09-03T16:09:36.650Z,99062.47
2018-09-03T16:12:38.864Z,99057.52
2018-09-03T16:15:41.154Z,99066.95
2018-09-03T16:18:43.484Z,99059.88
2018-09-03T16:21:45.681Z,99057.15
2018-09-03T16:24:47.939Z,99058.45
2018-09-03T16:27:50.138Z,99056.83
2018-09-03T16:30:52.263Z,99055.44
2018-09-03T16:33:54.522Z,99055.03
2018-09-03T16:36:56.723Z,99054.66
2018-09-03T16:39:59.049Z,99056.50
2018-09-03T16:43:01.355Z,99059.53
2018-09-03T16:46:03.650Z,99055.56
2018-09-03T16:49:06.031Z,99058.38
2018-09-03T16:52:08.187Z,99057.45
2018-09-03T16:55:10.425Z,99053.80
2018-09-03T16:58:12.625Z,99055.84
2018-09-03T17:01:15.115Z,99064.28
2018-09-03T17:04:17.293Z,99056.60
2018-09-03T17:07:19.718Z,99058.00
2018-09-03T17:10:21.893Z,99052.26
2018-09-03T17:13:24.063Z,99060.02
2018-09-03T17:16:26.229Z,99053.90
2018-09-03T17:19:28.453Z,99053.39
2018-09-03T17:22:30.724Z,99056.13
2018-09-03T17:25:32.938Z,99057.38
2018-09-03T17:28:35.129Z,99055.02
2018-09-03T17:31:37.392Z,99061.72
2018-09-03T17:34:39.672Z,99064.73
2018-09-03T17:37:41.888Z,99068.99
2018-09-03T17:40:44.092Z,99075.02
2018-09-03T17:43:46.271Z,99072.14
2018-09-03T17:46:48.472Z,99071.26
2018-09-03T17:49:50.813Z,99071.24
2018-09-03T17:52:53.019Z,99076.59
2018-09-03T17:55:55.279Z,99074.03
2018-09-03T17:58:57.570Z,99075.61
2018-09-03T18:01:59.814Z,99075.30
2018-09-03T18:05:03.613Z,99075.38
2018-09-03T18:08:05.927Z,99076.75
2018-09-03T18:11:08.265Z,99076.38
2018-09-03T18:14:10.684Z,99073.36
2018-09-03T18:17:13.172Z,99071.44
2018-09-03T18:20:15.443Z,99075.06
2018-09-03T18:23:17.711Z,99074.69
2018-09-03T18:26:19.997Z,99073.58
2018-09-03T18:29:22.223Z,99072.73
2018-09-03T18:32:24.804Z,99071.92
2018-09-03T18:35:27.284Z,99075.89
2018-09-03T18:38:29.540Z,99081.63
2018-09-03T18:41:31.764Z,99085.51
2018-09-03T18:44:33.951Z,99085.84
2018-09-03T18:47:36.167Z,99082.31
2018-09-03T18:50:39.907Z,99084.06
2018-09-03T18:53:42.104Z,99086.92
2018-09-03T18:56:44.324Z,99092.22
2018-09-03T18:59:46.654Z,99088.03
2018-09-03T19:02:48.824Z,99089.44
2018-09-03T19:05:51.135Z,99092.47
2018-09-03T19:08:53.364Z,99091.57
2018-09-03T19:11:55.560Z,99089.78
2018-09-03T19:14:57.728Z,99091.53
2018-09-03T19:17:59.977Z,99089.41
2018-09-03T19:21:02.444Z,99085.27
2018-09-03T19:24:04.630Z,99087.02
2018-09-03T19:27:07.130Z,99091.70
2018-09-03T19:30:09.472Z,99087.73
2018-09-03T19:33:12.588Z,99093.33
2018-09-03T19:36:14.851Z,99091.20
2018-09-03T19:39:17.138Z,99086.63
2018-09-03T19:42:19.412Z,99091.70
2018-09-03T19:45:21.827Z,99085.01
2018-09-03T19:48:24.040Z,99092.73
2018-09-03T19:51:26.445Z,99089.48
2018-09-03T19:54:28.759Z,99090.30
2018-09-03T19:57:30.994Z,99086.84
2018-09-03T20:00:33.341Z,99097.72
2018-09-03T20:03:35.658Z,99085.31
2018-09-03T20:06:37.959Z,99088.47
2018-09-03T20:09:40.480Z,99083.59
2018-09-03T20:12:42.745Z,99085.26
2018-09-03T20:15:44.981Z,99085.89
2018-09-03T20:18:47.172Z,99087.64
2018-09-03T20:21:49.608Z,99085.50
2018-09-03T20:24:51.865Z,99091.60
2018-09-03T20:27:54.100Z,99084.69
2018-09-03T20:30:56.401Z,99084.69
2018-09-03T20:33:58.698Z,99084.48
2018-09-03T20:37:01.195Z,99075.44
2018-09-03T20:40:03.537Z,99076.46
2018-09-03T20:43:05.941Z,99075.95
2018-09-03T20:46:08.089Z,99069.97
2018-09-03T20:49:10.292Z,99074.99
2018-09-03T20:52:12.440Z,99078.56
2018-09-03T20:55:14.847Z,99076.79
2018-09-03T20:58:17.277Z,99077.23
2018-09-03T21:01:19.685Z,99075.33
2018-09-03T21:04:21.956Z,99075.05
2018-09-03T21:07:24.196Z,99073.74
2018-09-03T21:10:26.423Z,99073.55
2018-09-03T21:13:28.728Z,99076.00
2018-09-03T21:16:30.948Z,99072.15
2018-09-03T21:19:33.143Z,99066.67
2018-09-03T21:22:35.507Z,99070.74
2018-09-03T21:25:37.744Z,99069.00
2018-09-03T21:28:39.939Z,99069.11
2018-09-03T21:31:42.062Z,99068.89
2018-09-03T21:34:44.271Z,99064.22
2018-09-03T21:37:46.510Z,99063.52
2018-09-03T21:40:48.720Z,99068.08
2018-09-03T21:43:51.031Z,99073.86
2018-09-03T21:46:53.520Z,99069.80
2018-09-03T21:49:55.682Z,99073.14
2018-09-03T21:52:57.970Z,99073.95
2018-09-03T21:56:00.750Z,99072.73
2018-09-03T21:59:03.028Z,99077.28
2018-09-03T22:02:07.778Z,99082.56
2018-09-03T22:05:09.984Z,99082.77
2018-09-03T22:08:12.182Z,99086.53
2018-09-03T22:11:14.554Z,99083.59
2018-09-03T22:14:16.734Z,99075.08
2018-09-03T22:17:18.980Z,99079.14
2018-09-03T22:20:21.260Z,99079.57
2018-09-03T22:23:23.382Z,99071.55
2018-09-03T22:26:25.685Z,99069.50
2018-09-03T22:29:29.059Z,99069.73
2018-09-03T22:32:31.341Z,99071.55
2018-09-03T22:35:33.893Z,99065.14
2018-09-03T22:38:36.213Z,99063.00
2018-09-03T22:41:38.548Z,99065.84
2018-09-03T22:44:40.762Z,99067.79
2018-09-03T22:47:42.983Z,99063.31
2018-09-03T22:50:45.154Z,99064.44
2018-09-03T22:53:47.339Z,99062.11
2018-09-03T22:56:49.498Z,99056.73
2018-09-03T22:59:51.863Z,99066.47
2018-09-03T23:02:54.027Z,99062.20
2018-09-03T23:05:56.243Z,99057.44
2018-09-03T23:08:58.527Z,99062.02
2018-09-03T23:12:00.706Z,99064.83
2018-09-03T23:15:02.928Z,99069.93
2018-09-03T23:18:05.154Z,99068.41
2018-09-03T23:21:07.447Z,99074.70
2018-09-03T23:24:09.639Z,99071.95
2018-09-03T23:27:11.826Z,99067.70
2018-09-03T23:30:14.112Z,99067.90
2018-09-03T23:33:16.244Z,99063.02
2018-09-03T23:36:18.439Z,99068.20
2018-09-03T23:39:20.835Z,99066.67
2018-09-03T23:42:23.083Z,99065.45
2018-09-03T23:45:25.345Z,99063.63
2018-09-03T23:48:27.559Z,99065.65
2018-09-03T23:51:29.847Z,99061.58
2018-09-03T23:54:32.052Z,99055.92
2018-09-03T23:57:34.314Z,99055.92
